Time;durP1;ratioP1;P1;durP2;ratioP2;P2;SDS_P1;SDS_P2;PMS_P1;PMS_P2;Temp;Humidity;BMP_temperature;BMP_pressure;BME280_temperature;BME280_humidity;BME280_pressure;Samples;Min_cycle;Max_cycle;Signal;HPM_P1;HPM_P2
2022/12/11 00:01:17;;;;;;;37.10;18.77;;;;;;;;;;6244520;23;20027;-60
2022/12/11 00:03:45;;;;;;;34.22;19.35;;;;;;;;;;6245337;22;20008;-59
2022/12/11 00:06:12;;;;;;;30.98;17.60;;;;;;;;;;6244912;23;20004;-60
2022/12/11 00:08:39;;;;;;;32.47;17.48;;;;;;;;;;6245277;22;20438;-60
2022/12/11 00:11:07;;;;;;;38.63;18.27;;;;;;;;;;6245058;23;20004;-60
2022/12/11 00:13:33;;;;;;;35.20;18.98;;;;;;;;;;6243008;23;20462;-59
2022/12/11 00:15:59;;;;;;;30.77;17.45;;;;;;;;;;6244117;23;20087;-59
2022/12/11 00:18:25;;;;;;;28.77;18.02;;;;;;;;;;6244735;23;20038;-60
2022/12/11 00:20:52;;;;;;;30.02;16.13;;;;;;;;;;6245051;23;20000;-60
2022/12/11 00:23:18;;;;;;;27.42;16.33;;;;;;;;;;6244526;23;20446;-59
2022/12/11 00:25:45;;;;;;;29.65;16.92;;;;;;;;;;6244877;23;20496;-60
2022/12/11 00:28:12;;;;;;;29.15;16.40;;;;;;;;;;6244880;23;20008;-59
2022/12/11 00:30:39;;;;;;;32.95;17.30;;;;;;;;;;6244262;23;20007;-60
2022/12/11 00:33:05;;;;;;;38.10;18.02;;;;;;;;;;6245014;22;20447;-60
2022/12/11 00:35:32;;;;;;;32.38;17.17;;;;;;;;;;6244240;23;20054;-60
2022/12/11 00:37:58;;;;;;;27.20;14.32;;;;;;;;;;6245003;23;20342;-60
2022/12/11 00:40:24;;;;;;;29.20;15.43;;;;;;;;;;6244511;23;20065;-60
2022/12/11 00:42:50;;;;;;;27.02;15.07;;;;;;;;;;6245068;23;20004;-59
2022/12/11 00:45:16;;;;;;;29.27;15.85;;;;;;;;;;6244088;23;20000;-59
2022/12/11 00:47:42;;;;;;;30.33;15.05;;;;;;;;;;6244768;23;20004;-60
2022/12/11 00:50:08;;;;;;;35.65;19.88;;;;;;;;;;6244873;23;20081;-60
2022/12/11 00:52:34;;;;;;;31.27;18.13;;;;;;;;;;6244548;23;20058;-60
2022/12/11 00:55:01;;;;;;;30.77;17.95;;;;;;;;;;6244714;23;20426;-60
2022/12/11 00:57:27;;;;;;;26.38;15.60;;;;;;;;;;6244389;23;20049;-60
2022/12/11 00:59:53;;;;;;;28.60;16.30;;;;;;;;;;6244191;22;20008;-60
2022/12/11 01:02:20;;;;;;;29.70;15.52;;;;;;;;;;6244616;23;20008;-60
2022/12/11 01:04:46;;;;;;;26.15;14.95;;;;;;;;;;6244577;23;20004;-59
2022/12/11 01:07:12;;;;;;;27.92;14.23;;;;;;;;;;6244532;22;20507;-59
2022/12/11 01:12:23;;;;;;;24.35;12.82;;;;;;;;;;6243812;23;20062;-60
2022/12/11 01:14:49;;;;;;;21.63;12.13;;;;;;;;;;6244648;22;20039;-60
2022/12/11 01:17:15;;;;;;;28.20;15.90;;;;;;;;;;6243853;23;20038;-60
2022/12/11 01:19:42;;;;;;;24.70;14.77;;;;;;;;;;6244396;22;20000;-60
2022/12/11 01:22:08;;;;;;;27.92;14.40;;;;;;;;;;6244761;23;20155;-59
2022/12/11 01:24:34;;;;;;;26.77;14.68;;;;;;;;;;6244197;23;20086;-60
2022/12/11 01:27:01;;;;;;;30.20;14.32;;;;;;;;;;6243922;23;20075;-60
2022/12/11 01:29:27;;;;;;;21.17;12.55;;;;;;;;;;6244544;22;20020;-59
2022/12/11 01:31:53;;;;;;;22.77;12.32;;;;;;;;;;6244430;23;20008;-60
2022/12/11 01:34:19;;;;;;;17.98;11.25;;;;;;;;;;6244206;23;20521;-60
2022/12/11 01:36:45;;;;;;;15.95;10.57;;;;;;;;;;6244454;23;20043;-60
2022/12/11 01:39:11;;;;;;;22.90;12.00;;;;;;;;;;6244652;23;20480;-59
2022/12/11 01:41:37;;;;;;;19.55;12.40;;;;;;;;;;6243601;23;20075;-59
2022/12/11 01:44:26;;;;;;;18.45;10.70;;;;;;;;;;6244628;23;20046;-60
2022/12/11 01:46:53;;;;;;;16.55;9.63;;;;;;;;;;6244499;22;20079;-59
2022/12/11 01:49:21;;;;;;;16.27;9.82;;;;;;;;;;6244373;23;20008;-59
2022/12/11 01:51:52;;;;;;;18.08;10.35;;;;;;;;;;6244318;23;20008;-59
2022/12/11 01:54:21;;;;;;;19.40;10.70;;;;;;;;;;6244517;23;20027;-59
2022/12/11 01:56:47;;;;;;;15.20;10.02;;;;;;;;;;6244019;23;20000;-59
2022/12/11 01:59:15;;;;;;;17.52;10.52;;;;;;;;;;6244445;23;20143;-60
2022/12/11 02:01:47;;;;;;;18.63;9.65;;;;;;;;;;6244011;23;19997;-59
2022/12/11 02:04:17;;;;;;;15.95;8.88;;;;;;;;;;6244563;22;20080;-59
2022/12/11 02:06:47;;;;;;;17.48;9.82;;;;;;;;;;6244051;23;20012;-59
2022/12/11 02:09:15;;;;;;;12.43;8.35;;;;;;;;;;6244415;23;20473;-59
2022/12/11 02:11:55;;;;;;;13.15;8.55;;;;;;;;;;6243693;23;20000;-59
2022/12/11 02:14:28;;;;;;;14.07;8.63;;;;;;;;;;6244105;23;20019;-60
2022/12/11 02:16:54;;;;;;;;;;;;;;;;;;6244998;23;20005;-60
2022/12/11 02:19:29;;;;;;;15.65;8.60;;;;;;;;;;6244706;23;20344;-60
2022/12/11 02:21:56;;;;;;;17.88;10.05;;;;;;;;;;6244140;23;20008;-59
2022/12/11 02:24:22;;;;;;;17.98;9.73;;;;;;;;;;6244308;22;20012;-59
2022/12/11 02:27:11;;;;;;;18.75;8.95;;;;;;;;;;6243623;23;20503;-59
2022/12/11 02:29:39;;;;;;;19.17;8.68;;;;;;;;;;6244045;22;20391;-59
2022/12/11 02:32:08;;;;;;;13.05;8.10;;;;;;;;;;6244492;23;20001;-59
2022/12/11 02:34:39;;;;;;;13.13;8.15;;;;;;;;;;6243702;23;20004;-60
2022/12/11 02:37:09;;;;;;;14.02;7.28;;;;;;;;;;6244326;23;20083;-59
2022/12/11 02:39:36;;;;;;;19.05;8.10;;;;;;;;;;6244869;23;20031;-59
2022/12/11 02:42:03;;;;;;;12.40;8.23;;;;;;;;;;6246072;23;20004;-59
2022/12/11 02:44:31;;;;;;;22.52;9.10;;;;;;;;;;6245842;23;20489;-59
2022/12/11 02:46:58;;;;;;;12.98;7.88;;;;;;;;;;6245868;23;20011;-59
2022/12/11 02:49:25;;;;;;;14.63;8.30;;;;;;;;;;6246137;23;19996;-59
2022/12/11 02:51:52;;;;;;;12.52;8.35;;;;;;;;;;6245611;23;20046;-59
2022/12/11 02:54:21;;;;;;;18.60;8.45;;;;;;;;;;6245336;23;19996;-59
2022/12/11 02:56:50;;;;;;;19.30;9.90;;;;;;;;;;6245652;23;20015;-60
2022/12/11 02:59:21;;;;;;;18.23;10.65;;;;;;;;;;6246224;22;20008;-60
2022/12/11 03:01:47;;;;;;;21.48;11.40;;;;;;;;;;6245735;22;20039;-59
2022/12/11 03:04:13;;;;;;;29.60;13.63;;;;;;;;;;6245859;23;20001;-59
2022/12/11 03:06:43;;;;;;;24.27;12.77;;;;;;;;;;6245436;23;20098;-59
2022/12/11 03:09:09;;;;;;;21.77;12.07;;;;;;;;;;6245641;22;20001;-59
2022/12/11 03:11:35;;;;;;;31.98;13.90;;;;;;;;;;6245718;23;20456;-59
2022/12/11 03:14:02;;;;;;;25.15;13.32;;;;;;;;;;6245614;23;20016;-59
2022/12/11 03:16:38;;;;;;;28.13;14.25;;;;;;;;;;6245614;23;20008;-59
2022/12/11 03:19:13;;;;;;;28.52;14.52;;;;;;;;;;6245534;23;20001;-59
2022/12/11 03:21:52;;;;;;;29.35;14.05;;;;;;;;;;6245684;23;20036;-59
2022/12/11 03:24:36;;;;;;;21.48;12.13;;;;;;;;;;6245696;23;20031;-59
2022/12/11 03:27:06;;;;;;;22.40;12.20;;;;;;;;;;6245385;23;20093;-60
2022/12/11 03:29:37;;;;;;;25.52;12.98;;;;;;;;;;6245790;23;20079;-59
2022/12/11 03:32:09;;;;;;;23.35;12.95;;;;;;;;;;6245211;23;20080;-59
2022/12/11 03:34:35;;;;;;;21.40;12.07;;;;;;;;;;6245788;23;20370;-59
2022/12/11 03:37:02;;;;;;;28.00;14.23;;;;;;;;;;6243680;23;20011;-59
2022/12/11 03:39:31;;;;;;;32.80;16.15;;;;;;;;;;6245304;23;20000;-59
2022/12/11 03:41:59;;;;;;;30.98;16.02;;;;;;;;;;6245381;23;20049;-59
2022/12/11 03:44:28;;;;;;;20.95;12.43;;;;;;;;;;6245562;23;20012;-59
2022/12/11 03:46:55;;;;;;;28.17;14.00;;;;;;;;;;6245106;23;20068;-59
2022/12/11 03:49:23;;;;;;;23.55;12.50;;;;;;;;;;6245454;23;20000;-59
2022/12/11 03:51:51;;;;;;;28.35;15.07;;;;;;;;;;6244616;23;20004;-59
2022/12/11 03:54:17;;;;;;;28.48;16.05;;;;;;;;;;6245378;23;20058;-59
2022/12/11 03:56:45;;;;;;;35.40;19.38;;;;;;;;;;6245036;23;20102;-59
2022/12/11 03:59:12;;;;;;;33.40;17.98;;;;;;;;;;6245295;22;20516;-59
2022/12/11 04:01:38;;;;;;;40.67;19.33;;;;;;;;;;6245338;23;20431;-59
2022/12/11 04:04:04;;;;;;;30.27;17.48;;;;;;;;;;6245186;23;20027;-60
2022/12/11 04:06:30;;;;;;;34.45;18.05;;;;;;;;;;6244521;23;20012;-59
2022/12/11 04:08:56;;;;;;;29.88;16.70;;;;;;;;;;6244521;23;20022;-60
2022/12/11 04:11:35;;;;;;;28.80;15.95;;;;;;;;;;6245331;23;20427;-59
2022/12/11 04:16:49;;;;;;;29.92;14.63;;;;;;;;;;6244965;23;20327;-59
2022/12/11 04:24:48;;;;;;;21.13;12.60;;;;;;;;;;6244902;23;20000;-59
2022/12/11 04:27:47;;;;;;;20.90;12.00;;;;;;;;;;6244788;22;20035;-59
2022/12/11 04:30:00;;;;;;;16.80;10.02;;;;;;;;;;6244851;23;20011;-62
2022/12/11 04:32:26;;;;;;;23.13;12.50;;;;;;;;;;6245088;23;19996;-62
2022/12/11 04:34:52;;;;;;;14.90;9.45;;;;;;;;;;6244752;23;20006;-62
2022/12/11 04:37:18;;;;;;;23.05;10.43;;;;;;;;;;6244774;23;20007;-63
2022/12/11 04:39:44;;;;;;;17.77;9.98;;;;;;;;;;6245027;23;20011;-63
2022/12/11 04:42:10;;;;;;;18.05;10.05;;;;;;;;;;6244874;23;20000;-62
2022/12/11 04:44:36;;;;;;;19.52;10.25;;;;;;;;;;6245015;23;20000;-62
2022/12/11 04:47:02;;;;;;;15.02;8.68;;;;;;;;;;6244508;23;20004;-63
2022/12/11 04:49:29;;;;;;;17.45;9.73;;;;;;;;;;6245015;23;20083;-63
2022/12/11 04:51:55;;;;;;;17.67;9.10;;;;;;;;;;6244228;23;20000;-63
2022/12/11 04:54:21;;;;;;;16.58;8.50;;;;;;;;;;6244914;23;20493;-62
2022/12/11 04:56:47;;;;;;;12.75;8.18;;;;;;;;;;6244794;23;20012;-62
2022/12/11 04:59:13;;;;;;;11.65;7.43;;;;;;;;;;6243298;23;20008;-62
2022/12/11 05:01:39;;;;;;;12.98;8.10;;;;;;;;;;6243110;23;20039;-63
2022/12/11 05:04:06;;;;;;;12.15;8.30;;;;;;;;;;6244895;23;20374;-62
2022/12/11 05:06:32;;;;;;;10.82;7.07;;;;;;;;;;6244390;23;20004;-63
2022/12/11 05:08:58;;;;;;;13.15;8.20;;;;;;;;;;6244620;23;20089;-63
2022/12/11 05:11:24;;;;;;;13.50;7.60;;;;;;;;;;6244861;23;20007;-63
2022/12/11 05:13:51;;;;;;;13.00;7.38;;;;;;;;;;6244621;23;20016;-63
2022/12/11 05:16:17;;;;;;;12.38;6.88;;;;;;;;;;6244908;23;20095;-62
2022/12/11 05:18:43;;;;;;;11.98;7.35;;;;;;;;;;6244579;23;20034;-62
2022/12/11 05:21:11;;;;;;;11.32;6.60;;;;;;;;;;6242967;23;20012;-63
2022/12/11 05:23:37;;;;;;;15.18;7.50;;;;;;;;;;6244551;23;20000;-63
2022/12/11 05:26:05;;;;;;;10.40;6.20;;;;;;;;;;6244401;23;20000;-63
2022/12/11 05:28:32;;;;;;;10.88;7.43;;;;;;;;;;6243773;23;20008;-63
2022/12/11 05:30:59;;;;;;;14.10;6.15;;;;;;;;;;6244219;23;20324;-63
2022/12/11 05:33:26;;;;;;;11.35;7.25;;;;;;;;;;6244401;23;20008;-63
2022/12/11 05:35:52;;;;;;;11.65;6.78;;;;;;;;;;6243488;23;20012;-63
2022/12/11 05:38:18;;;;;;;11.63;6.78;;;;;;;;;;6242887;23;20058;-63
2022/12/11 05:40:44;;;;;;;15.07;7.15;;;;;;;;;;6244491;23;20427;-63
2022/12/11 05:43:10;;;;;;;12.50;6.88;;;;;;;;;;6243855;23;20008;-63
2022/12/11 05:45:37;;;;;;;11.65;6.93;;;;;;;;;;6244384;23;20059;-63
2022/12/11 05:48:03;;;;;;;14.23;6.80;;;;;;;;;;6243031;22;20032;-63
2022/12/11 05:50:29;;;;;;;14.60;7.13;;;;;;;;;;6244023;23;20004;-63
2022/12/11 05:52:55;;;;;;;12.50;7.00;;;;;;;;;;6243110;23;20011;-63
2022/12/11 05:55:21;;;;;;;12.45;6.95;;;;;;;;;;6243176;23;20490;-63
2022/12/11 05:57:47;;;;;;;15.02;7.13;;;;;;;;;;6243236;23;20000;-63
2022/12/11 06:00:13;;;;;;;13.57;6.82;;;;;;;;;;6243024;23;20079;-63
2022/12/11 06:02:39;;;;;;;20.67;7.45;;;;;;;;;;6242608;23;20008;-63
2022/12/11 06:05:06;;;;;;;13.90;6.28;;;;;;;;;;6243101;23;20118;-63
2022/12/11 06:07:32;;;;;;;14.85;7.20;;;;;;;;;;6243294;23;20438;-64
2022/12/11 06:09:58;;;;;;;14.50;8.18;;;;;;;;;;6242866;23;20159;-63
2022/12/11 06:12:24;;;;;;;13.98;7.25;;;;;;;;;;6243224;23;20058;-63
2022/12/11 06:14:50;;;;;;;13.63;7.50;;;;;;;;;;6244667;23;20101;-64
2022/12/11 06:17:16;;;;;;;16.80;7.90;;;;;;;;;;6244291;23;20000;-64
2022/12/11 06:19:42;;;;;;;19.58;9.00;;;;;;;;;;6245025;23;20386;-63
2022/12/11 06:22:08;;;;;;;22.85;8.02;;;;;;;;;;6242744;23;20030;-63
2022/12/11 06:24:34;;;;;;;23.30;7.70;;;;;;;;;;6243407;23;20071;-63
2022/12/11 06:27:01;;;;;;;27.13;7.10;;;;;;;;;;6244230;23;20010;-64
2022/12/11 06:29:27;;;;;;;24.25;7.45;;;;;;;;;;6244481;23;20007;-63
2022/12/11 06:31:53;;;;;;;17.20;8.20;;;;;;;;;;6244222;23;20008;-63
2022/12/11 06:34:19;;;;;;;42.50;8.90;;;;;;;;;;6244508;23;19996;-63
2022/12/11 06:36:45;;;;;;;30.55;8.80;;;;;;;;;;6244176;23;20004;-63
2022/12/11 06:39:11;;;;;;;15.90;7.70;;;;;;;;;;6243593;23;20462;-63
2022/12/11 06:41:37;;;;;;;17.10;8.80;;;;;;;;;;6243403;23;20011;-63
2022/12/11 06:44:03;;;;;;;16.52;7.97;;;;;;;;;;6244793;23;20004;-63
2022/12/11 06:46:29;;;;;;;15.60;8.32;;;;;;;;;;6244216;23;20008;-63
2022/12/11 06:48:55;;;;;;;14.82;8.32;;;;;;;;;;6244489;23;20070;-63
2022/12/11 06:51:22;;;;;;;16.02;8.05;;;;;;;;;;6244467;23;20023;-63
2022/12/11 06:53:52;;;;;;;11.82;7.60;;;;;;;;;;6244891;23;20000;-63
2022/12/11 06:56:19;;;;;;;14.35;8.07;;;;;;;;;;6242476;23;20398;-64
2022/12/11 06:58:45;;;;;;;14.02;8.20;;;;;;;;;;6243709;22;20051;-63
2022/12/11 07:01:16;;;;;;;14.50;8.73;;;;;;;;;;6244278;23;20005;-63
2022/12/11 07:03:42;;;;;;;18.23;8.48;;;;;;;;;;6242259;23;20012;-63
2022/12/11 07:06:08;;;;;;;19.55;9.38;;;;;;;;;;6242408;23;20101;-63
2022/12/11 07:08:34;;;;;;;16.58;8.93;;;;;;;;;;6243284;22;20008;-63
2022/12/11 07:11:08;;;;;;;16.52;8.95;;;;;;;;;;6243836;23;20008;-63
2022/12/11 07:13:34;;;;;;;17.02;9.27;;;;;;;;;;6243502;23;20357;-63
2022/12/11 07:16:03;;;;;;;15.23;8.77;;;;;;;;;;6241156;23;20020;-63
2022/12/11 07:18:29;;;;;;;16.48;9.05;;;;;;;;;;6243714;22;20008;-63
2022/12/11 07:20:58;;;;;;;17.92;9.00;;;;;;;;;;6244204;22;20359;-63
2022/12/11 07:23:24;;;;;;;17.58;8.35;;;;;;;;;;6243391;22;20062;-63
2022/12/11 07:25:50;;;;;;;16.38;8.75;;;;;;;;;;6243241;23;19996;-63
2022/12/11 07:28:16;;;;;;;16.83;8.68;;;;;;;;;;6242965;23;20062;-63
2022/12/11 07:30:42;;;;;;;15.75;8.63;;;;;;;;;;6241732;23;19996;-63
2022/12/11 07:33:08;;;;;;;17.15;8.27;;;;;;;;;;6243731;23;20011;-63
2022/12/11 07:35:35;;;;;;;21.88;8.55;;;;;;;;;;6243438;23;20392;-63
2022/12/11 07:38:01;;;;;;;14.43;9.13;;;;;;;;;;6243366;23;20004;-63
2022/12/11 07:40:27;;;;;;;19.73;9.95;;;;;;;;;;6243501;23;20000;-63
2022/12/11 07:42:54;;;;;;;16.27;8.82;;;;;;;;;;6243148;23;20061;-64
2022/12/11 07:45:20;;;;;;;17.38;8.98;;;;;;;;;;6242597;23;20012;-63
2022/12/11 07:47:46;;;;;;;17.13;9.07;;;;;;;;;;6242798;23;20453;-63
2022/12/11 07:50:12;;;;;;;21.05;11.75;;;;;;;;;;6243566;23;20012;-63
2022/12/11 07:52:38;;;;;;;24.02;13.05;;;;;;;;;;6243281;23;20034;-63
2022/12/11 07:55:04;;;;;;;34.53;16.42;;;;;;;;;;6243630;23;20005;-63
2022/12/11 07:57:31;;;;;;;32.70;12.55;;;;;;;;;;6243689;23;20008;-63
2022/12/11 07:59:57;;;;;;;24.20;14.82;;;;;;;;;;6243226;23;20007;-63
2022/12/11 08:02:23;;;;;;;31.65;18.77;;;;;;;;;;6242123;23;20012;-63
2022/12/11 08:04:49;;;;;;;40.33;24.05;;;;;;;;;;6243369;23;20049;-63
2022/12/11 08:07:15;;;;;;;38.17;20.65;;;;;;;;;;6243650;23;20015;-63
2022/12/11 08:09:41;;;;;;;23.63;12.95;;;;;;;;;;6242870;23;20496;-63
2022/12/11 08:12:07;;;;;;;22.70;11.95;;;;;;;;;;6243903;23;20350;-63
2022/12/11 08:14:33;;;;;;;24.90;12.77;;;;;;;;;;6242768;23;20104;-63
2022/12/11 08:17:01;;;;;;;23.23;12.73;;;;;;;;;;6244002;23;20000;-63
2022/12/11 08:19:27;;;;;;;23.90;12.55;;;;;;;;;;6243923;22;20338;-63
2022/12/11 08:21:53;;;;;;;27.08;12.50;;;;;;;;;;6243366;23;20000;-62
2022/12/11 08:24:19;;;;;;;26.13;12.75;;;;;;;;;;6243618;23;20034;-62
2022/12/11 08:26:46;;;;;;;20.77;11.65;;;;;;;;;;6243553;23;20458;-62
2022/12/11 08:29:12;;;;;;;25.35;12.20;;;;;;;;;;6243437;23;20012;-62
2022/12/11 08:31:39;;;;;;;23.83;12.65;;;;;;;;;;6243309;23;20035;-62
2022/12/11 08:34:05;;;;;;;26.75;12.18;;;;;;;;;;6243679;23;20032;-62
2022/12/11 08:36:32;;;;;;;25.30;13.88;;;;;;;;;;6243659;23;20011;-62
2022/12/11 08:38:58;;;;;;;19.75;11.18;;;;;;;;;;6243605;23;20087;-62
2022/12/11 08:41:28;;;;;;;24.90;12.93;;;;;;;;;;6243934;22;20442;-62
2022/12/11 08:43:55;;;;;;;25.10;13.93;;;;;;;;;;6243347;22;20028;-62
2022/12/11 08:46:22;;;;;;;30.60;16.02;;;;;;;;;;6244457;23;20334;-62
2022/12/11 08:48:49;;;;;;;25.20;14.60;;;;;;;;;;6243979;22;20017;-62
2022/12/11 08:51:16;;;;;;;28.77;16.20;;;;;;;;;;6243338;23;20324;-62
2022/12/11 08:53:43;;;;;;;25.33;13.52;;;;;;;;;;6243863;23;20005;-62
2022/12/11 08:56:10;;;;;;;27.70;14.25;;;;;;;;;;6243573;23;20030;-62
2022/12/11 08:58:36;;;;;;;30.75;15.25;;;;;;;;;;6243682;23;20008;-62
2022/12/11 09:01:07;;;;;;;31.85;17.45;;;;;;;;;;6243696;23;20363;-62
2022/12/11 09:03:33;;;;;;;35.40;18.02;;;;;;;;;;6243503;22;20004;-62
2022/12/11 09:05:59;;;;;;;34.72;16.92;;;;;;;;;;6243776;23;20004;-62
2022/12/11 09:08:26;;;;;;;31.52;15.60;;;;;;;;;;6244150;23;20015;-62
2022/12/11 09:10:52;;;;;;;30.77;15.57;;;;;;;;;;6244010;23;20050;-62
2022/12/11 09:13:18;;;;;;;32.65;16.77;;;;;;;;;;6242764;23;20082;-62
2022/12/11 09:15:44;;;;;;;32.25;16.65;;;;;;;;;;6243781;23;20019;-62
2022/12/11 09:18:10;;;;;;;34.22;17.15;;;;;;;;;;6243994;23;20000;-64
2022/12/11 09:20:36;;;;;;;31.67;17.13;;;;;;;;;;6243403;23;20003;-63
2022/12/11 09:23:03;;;;;;;38.45;18.08;;;;;;;;;;6244097;22;20069;-62
2022/12/11 09:25:29;;;;;;;34.53;15.20;;;;;;;;;;6243247;22;20015;-63
2022/12/11 09:27:55;;;;;;;27.58;15.13;;;;;;;;;;6244095;22;20070;-63
2022/12/11 09:30:21;;;;;;;27.67;14.80;;;;;;;;;;6243645;23;20338;-63
2022/12/11 09:32:47;;;;;;;28.48;15.27;;;;;;;;;;6243677;23;20392;-62
2022/12/11 09:35:13;;;;;;;27.83;13.85;;;;;;;;;;6243145;23;20024;-62
2022/12/11 09:37:39;;;;;;;31.58;14.77;;;;;;;;;;6240257;23;20054;-62
2022/12/11 09:40:06;;;;;;;27.25;15.82;;;;;;;;;;6242024;23;20000;-62
2022/12/11 09:42:52;;;;;;;31.30;15.65;;;;;;;;;;6241790;23;20079;-62
2022/12/11 09:45:18;;;;;;;26.08;13.43;;;;;;;;;;6241207;23;20012;-62
2022/12/11 09:47:48;;;;;;;32.75;17.02;;;;;;;;;;6242234;23;20004;-63
2022/12/11 09:50:23;;;;;;;35.63;16.48;;;;;;;;;;6243735;23;20016;-63
2022/12/11 09:53:08;;;;;;;33.70;17.17;;;;;;;;;;6243262;23;20023;-62
2022/12/11 09:55:49;;;;;;;28.30;14.15;;;;;;;;;;6240772;22;20016;-63
2022/12/11 09:58:16;;;;;;;28.17;15.77;;;;;;;;;;6242806;23;20004;-63
2022/12/11 10:00:45;;;;;;;24.35;14.48;;;;;;;;;;6242361;23;20008;-63
2022/12/11 10:03:25;;;;;;;30.40;15.30;;;;;;;;;;6241917;23;20011;-63
2022/12/11 10:06:00;;;;;;;22.75;12.50;;;;;;;;;;6242522;23;20012;-63
2022/12/11 10:08:31;;;;;;;22.33;12.77;;;;;;;;;;6242804;23;20421;-63
2022/12/11 10:11:03;;;;;;;26.58;13.68;;;;;;;;;;6241182;23;20012;-63
2022/12/11 10:13:36;;;;;;;27.73;15.27;;;;;;;;;;6243354;23;20631;-63
2022/12/11 10:16:12;;;;;;;24.10;14.35;;;;;;;;;;6243159;23;20435;-63
2022/12/11 10:18:38;;;;;;;21.90;11.88;;;;;;;;;;6243126;23;20015;-63
2022/12/11 10:21:05;;;;;;;23.55;12.43;;;;;;;;;;6243510;23;20028;-63
2022/12/11 10:23:34;;;;;;;21.00;11.88;;;;;;;;;;6243081;22;20467;-63
2022/12/11 10:26:05;;;;;;;20.17;12.27;;;;;;;;;;6243468;22;20377;-63
2022/12/11 10:28:31;;;;;;;20.02;11.43;;;;;;;;;;6242992;23;20012;-63
2022/12/11 10:31:03;;;;;;;18.33;10.60;;;;;;;;;;6243281;23;20075;-63
2022/12/11 10:33:35;;;;;;;20.77;11.38;;;;;;;;;;6243302;23;20015;-63
2022/12/11 10:36:01;;;;;;;20.35;11.18;;;;;;;;;;6243172;23;20276;-63
2022/12/11 10:38:29;;;;;;;17.20;11.07;;;;;;;;;;6242729;23;20004;-63
2022/12/11 10:40:57;;;;;;;19.42;11.73;;;;;;;;;;6243340;22;20438;-63
2022/12/11 10:43:33;;;;;;;16.98;11.15;;;;;;;;;;6242936;23;20000;-62
2022/12/11 10:46:00;;;;;;;21.30;12.32;;;;;;;;;;6242770;23;20008;-63
2022/12/11 10:48:26;;;;;;;22.00;11.32;;;;;;;;;;6243036;23;20012;-63
2022/12/11 10:50:56;;;;;;;16.08;11.15;;;;;;;;;;6242857;23;20008;-63
2022/12/11 10:53:23;;;;;;;17.50;10.65;;;;;;;;;;6242403;23;20009;-63
2022/12/11 10:55:50;;;;;;;19.52;11.43;;;;;;;;;;6243176;22;20363;-63
2022/12/11 10:58:18;;;;;;;17.02;10.88;;;;;;;;;;6242771;23;20032;-63
2022/12/11 11:00:44;;;;;;;21.55;10.60;;;;;;;;;;6242012;22;20031;-63
2022/12/11 11:03:26;;;;;;;16.67;10.43;;;;;;;;;;6242146;23;20035;-63
2022/12/11 11:06:03;;;;;;;23.85;12.00;;;;;;;;;;6242797;23;20011;-63
2022/12/11 11:08:36;;;;;;;27.95;13.90;;;;;;;;;;6241946;23;20014;-63
2022/12/11 11:11:02;;;;;;;18.90;10.77;;;;;;;;;;6241944;23;20409;-63
2022/12/11 11:13:29;;;;;;;17.73;9.98;;;;;;;;;;6242302;23;20012;-63
2022/12/11 11:16:08;;;;;;;18.60;10.73;;;;;;;;;;6242418;23;20465;-63
2022/12/11 11:18:34;;;;;;;18.58;10.02;;;;;;;;;;6242752;22;20035;-63
2022/12/11 11:21:01;;;;;;;19.42;10.32;;;;;;;;;;6243189;23;20083;-63
2022/12/11 11:23:28;;;;;;;16.98;10.02;;;;;;;;;;6243133;23;20009;-63
2022/12/11 11:25:56;;;;;;;17.70;10.70;;;;;;;;;;6242804;23;20008;-63
2022/12/11 11:28:25;;;;;;;17.70;9.95;;;;;;;;;;6243467;22;20392;-63
2022/12/11 11:31:00;;;;;;;16.58;9.07;;;;;;;;;;6243517;23;20008;-63
2022/12/11 11:33:27;;;;;;;19.00;10.88;;;;;;;;;;6243673;22;20012;-63
2022/12/11 11:35:53;;;;;;;15.52;9.98;;;;;;;;;;6243357;23;20609;-63
2022/12/11 11:38:21;;;;;;;18.35;10.48;;;;;;;;;;6243511;23;20390;-63
2022/12/11 11:40:59;;;;;;;17.25;9.90;;;;;;;;;;6243406;22;20004;-63
2022/12/11 11:43:28;;;;;;;18.80;9.90;;;;;;;;;;6243757;22;20134;-63
2022/12/11 11:46:17;;;;;;;17.00;9.50;;;;;;;;;;6243242;22;20122;-63
2022/12/11 11:48:47;;;;;;;17.42;9.55;;;;;;;;;;6227860;23;20094;-63
2022/12/11 11:51:34;;;;;;;15.07;9.10;;;;;;;;;;6243065;23;20058;-63
2022/12/11 11:54:02;;;;;;;18.65;11.50;;;;;;;;;;6243810;23;20011;-63
2022/12/11 11:56:33;;;;;;;24.80;14.55;;;;;;;;;;6243117;23;20419;-63
2022/12/11 11:59:07;;;;;;;17.92;9.98;;;;;;;;;;6243342;22;20012;-63
2022/12/11 12:01:33;;;;;;;16.75;11.40;;;;;;;;;;6243320;22;20385;-63
2022/12/11 12:04:01;;;;;;;15.18;9.45;;;;;;;;;;6243199;23;20450;-63
2022/12/11 12:06:53;;;;;;;16.35;10.15;;;;;;;;;;6242781;23;20392;-63
2022/12/11 12:09:25;;;;;;;16.85;9.98;;;;;;;;;;6238372;23;20557;-63
2022/12/11 12:11:55;;;;;;;18.55;9.43;;;;;;;;;;6244172;23;20008;-63
2022/12/11 12:14:25;;;;;;;16.17;9.27;;;;;;;;;;6242406;23;20008;-63
2022/12/11 12:17:06;;;;;;;15.05;9.18;;;;;;;;;;6243891;23;20008;-63
2022/12/11 12:19:44;;;;;;;14.70;8.98;;;;;;;;;;6242700;23;20005;-63
2022/12/11 12:22:24;;;;;;;12.90;8.05;;;;;;;;;;6242979;23;20079;-63
2022/12/11 12:24:59;;;;;;;12.43;7.88;;;;;;;;;;6243953;23;20347;-63
2022/12/11 12:27:28;;;;;;;15.32;8.73;;;;;;;;;;6243005;23;20004;-63
2022/12/11 12:30:00;;;;;;;13.13;8.80;;;;;;;;;;6242815;23;20010;-63
2022/12/11 12:32:35;;;;;;;12.57;7.40;;;;;;;;;;6243252;23;20001;-63
2022/12/11 12:35:04;;;;;;;12.43;7.10;;;;;;;;;;6244013;23;20005;-63
2022/12/11 12:37:44;;;;;;;11.45;6.93;;;;;;;;;;6243937;23;20327;-63
2022/12/11 12:40:18;;;;;;;13.63;7.50;;;;;;;;;;6243332;22;20023;-63
2022/12/11 12:43:02;;;;;;;16.48;8.13;;;;;;;;;;6243298;23;20004;-63
2022/12/11 12:45:34;;;;;;;12.95;7.55;;;;;;;;;;6243075;23;20018;-63
2022/12/11 12:48:01;;;;;;;11.77;7.38;;;;;;;;;;6243144;23;20084;-63
2022/12/11 12:50:33;;;;;;;11.63;7.05;;;;;;;;;;6242495;23;20008;-63
2022/12/11 12:53:00;;;;;;;9.82;6.43;;;;;;;;;;6243076;23;20016;-63
2022/12/11 12:55:28;;;;;;;12.82;6.88;;;;;;;;;;6241641;23;20058;-63
2022/12/11 12:57:56;;;;;;;9.93;6.85;;;;;;;;;;6243146;22;20399;-63
2022/12/11 13:00:27;;;;;;;8.75;5.93;;;;;;;;;;6242330;23;20071;-63
2022/12/11 13:02:55;;;;;;;12.23;7.13;;;;;;;;;;6242390;23;20042;-63
2022/12/11 13:05:32;;;;;;;11.52;7.20;;;;;;;;;;6242885;22;20008;-63
2022/12/11 13:08:02;;;;;;;12.52;6.63;;;;;;;;;;6243160;23;20047;-63
2022/12/11 13:10:35;;;;;;;9.57;6.38;;;;;;;;;;6242822;23;20018;-63
2022/12/11 13:13:02;;;;;;;9.18;6.40;;;;;;;;;;6242873;23;20088;-63
2022/12/11 13:15:31;;;;;;;10.60;6.97;;;;;;;;;;6242416;23;20142;-63
2022/12/11 13:17:58;;;;;;;9.55;5.55;;;;;;;;;;6242628;23;20000;-63
2022/12/11 13:20:25;;;;;;;7.95;4.95;;;;;;;;;;6243188;23;20039;-63
2022/12/11 13:23:06;;;;;;;8.25;4.13;;;;;;;;;;6242619;23;20015;-63
2022/12/11 13:25:45;;;;;;;6.93;4.28;;;;;;;;;;6242850;23;20015;-63
2022/12/11 13:28:28;;;;;;;5.78;3.88;;;;;;;;;;6243036;23;20008;-63
2022/12/11 13:31:02;;;;;;;6.78;3.88;;;;;;;;;;6242663;23;20019;-63
2022/12/11 13:33:29;;;;;;;5.50;3.38;;;;;;;;;;6243203;23;20004;-63
2022/12/11 13:36:10;;;;;;;6.53;3.53;;;;;;;;;;6242727;22;20083;-63
2022/12/11 13:38:38;;;;;;;8.50;4.70;;;;;;;;;;6242489;23;20414;-63
2022/12/11 13:41:10;;;;;;;7.55;4.22;;;;;;;;;;6243097;23;20330;-63
2022/12/11 13:43:40;;;;;;;5.93;4.03;;;;;;;;;;6241647;23;20040;-63
2022/12/11 13:46:09;;;;;;;8.35;5.15;;;;;;;;;;6241383;23;20461;-63
2022/12/11 13:48:39;;;;;;;7.45;4.30;;;;;;;;;;6241110;23;20035;-63
2022/12/11 13:51:06;;;;;;;8.63;4.63;;;;;;;;;;6241219;23;20000;-63
2022/12/11 13:54:13;;;;;;;6.25;3.75;;;;;;;;;;6242973;23;20027;-63
2022/12/11 13:56:56;;;;;;;5.72;3.33;;;;;;;;;;6216607;23;20035;-63
2022/12/11 13:59:56;;;;;;;6.10;2.78;;;;;;;;;;6243229;23;20039;-63
2022/12/11 14:02:32;;;;;;;4.10;2.13;;;;;;;;;;6240270;23;20353;-63
2022/12/11 14:05:03;;;;;;;2.30;1.52;;;;;;;;;;6243017;22;20007;-63
2022/12/11 14:07:31;;;;;;;5.20;1.60;;;;;;;;;;6243078;23;20012;-63
2022/12/11 14:10:02;;;;;;;3.83;1.45;;;;;;;;;;6242620;23;20007;-63
2022/12/11 14:12:29;;;;;;;2.17;1.65;;;;;;;;;;6242661;23;20094;-63
2022/12/11 14:14:56;;;;;;;1.67;1.17;;;;;;;;;;6242281;23;20319;-63
2022/12/11 14:17:25;;;;;;;3.25;1.30;;;;;;;;;;6242632;23;20001;-63
2022/12/11 14:19:51;;;;;;;2.95;0.88;;;;;;;;;;6242025;22;20442;-63
2022/12/11 14:22:22;;;;;;;1.85;0.80;;;;;;;;;;6242629;23;20015;-63
2022/12/11 14:24:49;;;;;;;1.65;0.80;;;;;;;;;;6242341;23;20059;-63
2022/12/11 14:27:17;;;;;;;4.07;0.80;;;;;;;;;;6242689;23;20083;-63
2022/12/11 14:29:44;;;;;;;2.35;0.90;;;;;;;;;;6242800;22;20008;-63
2022/12/11 14:32:15;;;;;;;3.35;1.55;;;;;;;;;;6241994;23;20000;-63
2022/12/11 14:34:44;;;;;;;2.88;1.60;;;;;;;;;;6242969;23;19996;-63
2022/12/11 14:37:13;;;;;;;2.78;1.85;;;;;;;;;;6244467;23;20012;-63
2022/12/11 14:39:39;;;;;;;4.50;2.13;;;;;;;;;;6244668;23;20050;-63
2022/12/11 14:42:11;;;;;;;3.03;2.78;;;;;;;;;;6244152;23;20084;-63
2022/12/11 14:44:55;;;;;;;4.72;3.40;;;;;;;;;;6244185;23;20008;-63
2022/12/11 14:47:24;;;;;;;3.47;2.17;;;;;;;;;;6244632;23;20059;-63